Flight Track Log - Related Links

Times and Time Zones

All times are in EDT time to prevent confusion due to time zone crossing. See the UPS238 flight status page for this flight to view local times or setup timezone preferences in your user account.

Time Position Orientation Groundspeed Altitude Reporting Facility
EDT Latitude Longitude Course Direction KTS MPH feet Rate Location/Type
Tue 05:22:00 PM 56.9959 -16.3606 303° West  Level FlightAware Approximate
Tue 05:23:00 PM 57.0549 -16.5593 299° West  Level FlightAware Approximate
Tue 05:24:00 PM 57.1136 -16.7586 299° West  Level FlightAware Approximate
Tue 05:25:00 PM 57.1723 -16.9596 298° West  Level FlightAware Approximate
Tue 05:26:00 PM 57.2307 -17.1612 298° West  Level FlightAware Approximate
Tue 05:27:00 PM 57.2887 -17.3634 298° West  Level FlightAware Approximate
Tue 05:28:00 PM 57.3464 -17.5663 298° West  Level FlightAware Approximate
Tue 05:29:00 PM 57.4038 -17.7699 298° West  Level FlightAware Approximate
Tue 05:30:00 PM 57.4608 -17.9740 298° West  Level FlightAware Approximate
Tue 05:31:00 PM 57.5175 -18.1788 297° West  Level FlightAware Approximate
Tue 05:32:00 PM 57.5739 -18.3842 297° West  Level FlightAware Approximate
Tue 05:33:00 PM 57.6300 -18.5903 297° West  Level FlightAware Approximate
Tue 05:34:00 PM 57.6857 -18.7970 297° West  Level FlightAware Approximate
Tue 05:35:00 PM 57.7411 -19.0043 297° West  Level FlightAware Approximate
Tue 05:36:00 PM 57.7961 -19.2123 296° West  Level FlightAware Approximate
Tue 05:37:00 PM 57.8508 -19.4209 296° West  Level FlightAware Approximate
Tue 05:38:00 PM 57.9052 -19.6301 296° West  Level FlightAware Approximate
Tue 05:39:00 PM 57.9592 -19.8400 296° West  Level FlightAware Approximate
Tue 05:40:00 PM 58.0128 -20.0506 295° West  Level FlightAware Approximate
Tue 05:41:00 PM 58.0658 -20.2620 295° West  Level FlightAware Approximate
Tue 05:42:00 PM 58.1184 -20.4740 295° West  Level FlightAware Approximate
Tue 05:42:05 PM 58.0000 -20.0000 295° West 472 543 34,000  Level ETMS Enhanced Traffic Management System
Tue 05:43:00 PM 58.1707 -20.6867 295° West  Level FlightAware Approximate
Tue 05:44:00 PM 58.2227 -20.9000 295° West  Level FlightAware Approximate
Tue 05:45:00 PM 58.2743 -21.1138 295° West  Level FlightAware Approximate
Tue 05:46:00 PM 58.3255 -21.3284 295° West  Level FlightAware Approximate
Tue 05:47:00 PM 58.3764 -21.5435 294° West  Level FlightAware Approximate
Tue 05:48:00 PM 58.4391 -21.8134 294° West 472 543 34,000  Level FlightAware Transoceanic
Tue 05:49:00 PM 58.4922 -22.0432 294° West 472 543 34,000  Level FlightAware Transoceanic
Tue 05:50:00 PM 58.5448 -22.2737 294° West 472 543 34,000  Level FlightAware Transoceanic
Tue 05:51:00 PM 58.5971 -22.5049 293° West 472 543 34,000  Level FlightAware Transoceanic
Tue 05:52:00 PM 58.6489 -22.7368 293° West 472 543 34,000  Level FlightAware Transoceanic
Tue 05:53:00 PM 58.7003 -22.9694 293° West 472 543 34,000  Level FlightAware Transoceanic
Tue 05:54:00 PM 58.7513 -23.2026 293° West 472 543 34,000  Level FlightAware Transoceanic
Tue 05:55:00 PM 58.8019 -23.4366 293° West 472 543 34,000  Level FlightAware Transoceanic
Tue 05:56:00 PM 58.8520 -23.6712 292° West 472 543 34,000  Level FlightAware Transoceanic
Tue 05:57:00 PM 58.9017 -23.9065 292° West 472 543 34,000  Level FlightAware Transoceanic
Tue 05:58:00 PM 58.9510 -24.1424 292° West 472 543 34,000  Level FlightAware Transoceanic
Tue 05:59:00 PM 58.9999 -24.3791 292° West 472 543 34,000  Level FlightAware Transoceanic
Tue 06:00:00 PM 59.0483 -24.6164 292° West 472 543 34,000  Level FlightAware Transoceanic
Tue 06:01:00 PM 59.0963 -24.8544 291° West 472 543 34,000  Level FlightAware Transoceanic
Tue 06:02:00 PM 59.1438 -25.0930 291° West 472 543 34,000  Level FlightAware Transoceanic
Tue 06:03:00 PM 59.1909 -25.3323 291° West 472 543 34,000  Level FlightAware Transoceanic
Tue 06:04:00 PM 59.2376 -25.5723 291° West 472 543 34,000  Level FlightAware Transoceanic
Tue 06:05:00 PM 59.2838 -25.8129 290° West 472 543 34,000  Level FlightAware Transoceanic
Tue 06:06:00 PM 59.3296 -26.0542 290° West 472 543 34,000  Level FlightAware Transoceanic
Tue 06:07:00 PM 59.3750 -26.2961 290° West 472 543 34,000  Level FlightAware Transoceanic
Tue 06:08:00 PM 59.4198 -26.5387 290° West 472 543 34,000  Level FlightAware Transoceanic
Tue 06:09:00 PM 59.4643 -26.7819 290° West 472 543 34,000  Level FlightAware Transoceanic
Tue 06:10:00 PM 59.5083 -27.0257 289° West 472 543 34,000  Level FlightAware Transoceanic
Tue 06:11:00 PM 59.5518 -27.2702 289° West 472 543 34,000  Level FlightAware Transoceanic
Tue 06:12:00 PM 59.5948 -27.5153 289° West 472 543 34,000  Level FlightAware Transoceanic
Tue 06:13:00 PM 59.6375 -27.7610 289° West 472 543 34,000  Level FlightAware Transoceanic
Tue 06:14:00 PM 59.6796 -28.0074 289° West 472 543 34,000  Level FlightAware Transoceanic
Tue 06:15:00 PM 59.7213 -28.2543 288° West 472 543 34,000  Level FlightAware Transoceanic
Tue 06:16:00 PM 59.7625 -28.5019 288° West 472 543 34,000  Level FlightAware Transoceanic
Tue 06:17:00 PM 59.8033 -28.7501 288° West 472 543 34,000  Level FlightAware Transoceanic
Tue 06:18:00 PM 59.8436 -28.9989 288° West 472 543 34,000  Level FlightAware Transoceanic
Tue 06:19:00 PM 59.8834 -29.2483 288° West 472 543 34,000  Level FlightAware Transoceanic
Tue 06:20:00 PM 59.9227 -29.4983 287° West 472 543 34,000  Level FlightAware Transoceanic
Tue 06:21:00 PM 59.9616 -29.7488 287° West 472 543 34,000  Level FlightAware Transoceanic
Tue 06:22:00 PM 59.9978 -29.9855 287° West  Level FlightAware Approximate
Tue 06:23:00 PM 60.0336 -30.2227 287° West  Level FlightAware Approximate
Tue 06:24:00 PM 60.0080 -30.2168 274° West  Level FlightAware Approximate
Tue 06:25:00 PM 60.0168 -30.4639 274° West  Level FlightAware Approximate
Tue 06:26:00 PM 60.0250 -30.7112 274° West  Level FlightAware Approximate
Tue 06:27:00 PM 60.0328 -30.9585 274° West  Level FlightAware Approximate
Tue 06:28:00 PM 60.0401 -31.2060 274° West  Level FlightAware Approximate
Tue 06:29:00 PM 60.0470 -31.4536 273° West  Level FlightAware Approximate
Tue 06:30:00 PM 60.0534 -31.7013 273° West  Level FlightAware Approximate
Tue 06:31:00 PM 60.0594 -31.9491 273° West  Level FlightAware Approximate
Tue 06:32:00 PM 60.0648 -32.1970 273° West  Level FlightAware Approximate
Tue 06:33:00 PM 60.0699 -32.4449 272° West  Level FlightAware Approximate
Tue 06:34:00 PM 60.0744 -32.6929 272° West  Level FlightAware Approximate
Tue 06:35:00 PM 60.0785 -32.9410 272° West  Level FlightAware Approximate
Tue 06:36:00 PM 60.0821 -33.1892 272° West  Level FlightAware Approximate
Tue 06:37:00 PM 60.0853 -33.4374 272° West  Level FlightAware Approximate
Tue 06:38:00 PM 60.0880 -33.6856 271° West  Level FlightAware Approximate
Tue 06:39:00 PM 60.0902 -33.9339 271° West  Level FlightAware Approximate
Tue 06:40:00 PM 60.0920 -34.1822 271° West  Level FlightAware Approximate
Tue 06:41:00 PM 60.0933 -34.4305 271° West  Level FlightAware Approximate
Tue 06:42:00 PM 60.0941 -34.6788 270° West  Level FlightAware Approximate
Tue 06:43:00 PM 60.0945 -34.9272 270° West  Level FlightAware Approximate
Tue 06:44:00 PM 60.0944 -35.1755 270° West  Level FlightAware Approximate
Tue 06:44:47 PM 60.0833 -35.7833 269° West 490 564 34,000  Level Gander Center
Tue 06:45:00 PM 60.0938 -35.4239 270° West  Level FlightAware Approximate
Tue 06:45:47 PM 60.0833 -36.0667 270° West 490 564 34,000  Level Gander Center
Tue 06:46:00 PM 60.0928 -35.6722 270° West  Level FlightAware Approximate
Tue 06:46:47 PM 60.0833 -36.3167 270° West 490 564 34,000  Level Gander Center
Tue 06:47:00 PM 60.0913 -35.9205 269° West  Level FlightAware Approximate
Tue 06:47:47 PM 60.0833 -36.6000 270° West 490 564 34,000  Level Gander Center
Tue 06:48:00 PM 60.0894 -36.1688 269° West  Level FlightAware Approximate
Tue 06:48:47 PM 60.0833 -36.8500 270° West 480 552 34,000  Level Gander Center
Tue 06:49:00 PM 60.0869 -36.4171 269° West  Level FlightAware Approximate
Tue 06:49:47 PM 60.0833 -37.1333 270° West 480 552 34,000  Level Gander Center
Tue 06:50:47 PM 60.0667 -37.3833 262° West 480 552 34,000  Level Gander Center
Tue 06:51:47 PM 60.0667 -37.6333 270° West 480 552 34,000  Level Gander Center
Tue 06:52:47 PM 60.0667 -37.9167 270° West 480 552 34,000  Level Gander Center
Tue 06:53:47 PM 60.0500 -38.1667 263° West 480 552 34,000  Level Gander Center
Tue 06:54:47 PM 60.0500 -38.4500 270° West 480 552 34,000  Level Gander Center
Tue 06:55:47 PM 60.0333 -38.7000 263° West 480 552 34,000  Level Gander Center
Tue 06:56:47 PM 60.0333 -38.9500 270° West 480 552 34,000  Level Gander Center
Tue 06:57:47 PM 60.0167 -39.2167 263° West 480 552 34,000  Level Gander Center
Tue 06:58:47 PM 60.0167 -39.4667 270° West 470 541 34,000  Level Gander Center
Tue 06:59:47 PM 60.0000 -39.7167 263° West 480 552 34,000  Level Gander Center
Tue 07:00:47 PM 60.0000 -40.0000 270° West 470 541 34,000  Level Gander Center
Tue 07:01:47 PM 59.9667 -40.2667 256° West 480 552 34,000  Level Gander Center
Tue 07:02:47 PM 59.9500 -40.5167 263° West 480 552 34,000  Level Gander Center
Tue 07:03:47 PM 59.9333 -40.7667 263° West 480 552 34,000  Level Gander Center
Tue 07:04:47 PM 59.9333 -41.0333 270° West 480 552 34,000  Level Gander Center
Tue 07:05:47 PM 59.9000 -41.3000 256° West 470 541 34,000  Level Gander Center
Tue 07:06:47 PM 59.8833 -41.5500 263° West 470 541 34,000  Level Gander Center
Tue 07:07:47 PM 59.8667 -41.8000 263° West 470 541 34,000  Level Gander Center
Tue 07:08:47 PM 59.8500 -42.0500 263° West 470 541 34,000  Level Gander Center
Tue 07:09:47 PM 59.8167 -42.3000 255° West 470 541 34,000  Level Gander Center
Tue 07:10:47 PM 59.8000 -42.5500 263° West 470 541 34,000  Level Gander Center
Tue 07:11:47 PM 59.8000 -42.8333 270° West 470 541 34,000  Level Gander Center
Tue 07:12:47 PM 59.7833 -43.0833 263° West 460 529 34,000  Level Gander Center
Tue 07:13:47 PM 59.7500 -43.3333 255° West 460 529 34,000  Level Gander Center
Tue 07:14:47 PM 59.7333 -43.5833 263° West 460 529 34,000  Level Gander Center
Tue 07:15:47 PM 59.7000 -43.8167 254° West 460 529 34,000  Level Gander Center
Tue 07:16:47 PM 59.6833 -44.0667 263° West 460 529 34,000  Level Gander Center
Tue 07:17:47 PM 59.6667 -44.2833 261° West 460 529 34,000  Level Gander Center
Tue 07:18:47 PM 59.6333 -44.5333 255° West 460 529 34,000  Level Gander Center
Tue 07:19:47 PM 59.6000 -44.7833 255° West 460 529 34,000  Level Gander Center
Tue 07:20:47 PM 59.5833 -45.0333 263° West 460 529 34,000  Level Gander Center
Tue 07:21:47 PM 59.5667 -45.2667 262° West 460 529 34,000  Level Gander Center
Tue 07:22:47 PM 59.5500 -45.5167 263° West 460 529 34,000  Level Gander Center
Tue 07:23:47 PM 59.5167 -45.7667 255° West 450 518 34,000  Level Gander Center
Tue 07:24:47 PM 59.4833 -46.0167 255° West 450 518 34,000  Level Gander Center
Tue 07:25:47 PM 59.4500 -46.2667 255° West 450 518 34,000  Level Gander Center
Tue 07:26:47 PM 59.4333 -46.5000 262° West 450 518 34,000  Level Gander Center
Tue 07:27:47 PM 59.4000 -46.7167 253° West 450 518 34,000  Level Gander Center
Tue 07:28:47 PM 59.3833 -46.9500 262° West 440 506 34,000  Level Gander Center
Tue 07:29:47 PM 59.3500 -47.2000 255° West 440 506 34,000  Level Gander Center
Tue 07:30:47 PM 59.3333 -47.4167 262° West 440 506 34,000  Level Gander Center
Tue 07:31:47 PM 59.3000 -47.6500 254° West 440 506 34,000  Level Gander Center
Tue 07:32:47 PM 59.2833 -47.9000 263° West 440 506 34,000  Level Gander Center
Tue 07:33:47 PM 59.2500 -48.1333 254° West 440 506 34,000  Level Gander Center
Tue 07:34:47 PM 59.2167 -48.3500 253° West 440 506 34,000  Level Gander Center
Tue 07:35:47 PM 59.1833 -48.5833 255° West 440 506 34,000  Level Gander Center
Tue 07:36:47 PM 59.1667 -48.8333 263° West 440 506 34,000  Level Gander Center
Tue 07:37:47 PM 59.1167 -49.0333 244° Southwest 440 506 34,000  Level Gander Center
Tue 07:38:47 PM 59.0833 -49.2833 256° West 440 506 34,000  Level Gander Center
Tue 07:39:47 PM 59.0500 -49.5167 255° West 440 506 34,000  Level Gander Center
Tue 07:40:47 PM 59.0167 -49.7167 252° West 440 506 34,000  Level Gander Center
Tue 07:41:47 PM 59.0000 -49.9667 263° West 440 506 34,000  Level Gander Center
Tue 07:42:47 PM 58.9667 -50.2000 255° West 440 506 34,000  Level Gander Center
Tue 07:43:47 PM 58.9333 -50.4000 252° West 440 506 34,000  Level Gander Center
Tue 07:44:47 PM 58.8833 -50.6500 249° West 440 506 34,000  Level Gander Center
Tue 07:45:42 PM 58.8667 -50.8500 261° West 450 518 34,000  Level Gander Center
Tue 07:47:47 PM 58.7833 -51.3333 252° West 450 518 34,000  Level Gander Center
Tue 07:48:47 PM 58.7333 -51.5667 248° West 450 518 34,000  Level Gander Center
Tue 07:49:42 PM 58.7167 -51.7667 261° West 450 518 34,000  Level Gander Center
Tue 07:51:47 PM 58.6500 -52.2333 255° West 440 506 34,000  Level Gander Center
Tue 07:52:42 PM 58.6167 -52.4333 252° West 440 506 34,000  Level Gander Center
Tue 07:53:42 PM 58.5833 -52.6667 255° West 450 518 34,000  Level Gander Center
Tue 07:55:42 PM 58.4833 -53.1167 247° West 440 506 34,000  Level Gander Center
Tue 07:56:47 PM 58.4500 -53.3333 254° West 440 506 34,000  Level Gander Center
Tue 07:57:47 PM 58.4167 -53.5667 255° West 440 506 34,000  Level Gander Center
Tue 08:02:11 PM 58.2333 -54.5333 249° West 430 495 34,000  Level Gander Center
Tue 08:02:46 PM 58.2000 -54.6333 238° Southwest 430 495 34,000  Level Gander Center
Tue 08:03:46 PM 58.1667 -54.8667 255° West 430 495 34,000  Level Gander Center
Tue 08:04:46 PM 58.1000 -55.0667 238° Southwest 430 495 34,000  Level Gander Center
Tue 08:05:46 PM 58.0667 -55.2833 254° West 430 495 34,000 750 Level Gander Center
Tue 08:06:46 PM 58.0333 -55.4833 253° West 420 483 35,500 1,000 Climbing Gander Center
Tue 08:07:00 PM 57.9938 -55.3179 249° West  Level FlightAware Approximate
Tue 08:07:46 PM 57.9667 -55.6833 238° Southwest 430 495 36,000  Level Gander Center
Tue 08:08:46 PM 57.9167 -55.8833 245° Southwest 410 472 36,000  Level Gander Center
Tue 08:09:46 PM 57.8500 -56.0833 238° Southwest 420 483 36,000  Level Gander Center
Tue 08:10:46 PM 57.7833 -56.2667 236° Southwest 430 495 36,000  Level Gander Center
Tue 08:11:46 PM 57.7333 -56.4667 245° Southwest 440 506 36,000  Level Gander Center
Tue 08:12:46 PM 57.6667 -56.6667 238° Southwest 430 495 36,000  Level Gander Center
Tue 08:13:46 PM 57.6333 -56.8500 251° West 430 495 36,000  Level Gander Center
Tue 08:14:46 PM 57.5667 -57.0500 238° Southwest 430 495 36,000  Level Gander Center
Tue 08:15:46 PM 57.5000 -57.2500 238° Southwest 420 483 36,000  Level Gander Center
Tue 08:16:46 PM 57.4500 -57.4333 243° Southwest 420 483 36,000  Level Gander Center
Tue 08:17:46 PM 57.3833 -57.6333 238° Southwest 400 460 36,000  Level Gander Center
Tue 08:18:46 PM 57.3167 -57.7833 231° Southwest 400 460 36,000  Level Gander Center
Tue 08:19:46 PM 57.2833 -57.9500 250° West 380 437 36,000  Level Gander Center
Tue 08:20:46 PM 57.2333 -58.1333 243° Southwest 400 460 36,000  Level Gander Center
Tue 08:21:46 PM 57.1500 -58.3333 233° Southwest 420 483 36,000  Level Gander Center
Tue 08:22:46 PM 57.1000 -58.5167 243° Southwest 420 483 36,000  Level Gander Center
Tue 08:23:46 PM 57.0500 -58.7000 243° Southwest 410 472 36,000  Level Gander Center
Tue 08:24:46 PM 56.9833 -58.9000 239° Southwest 410 472 36,000  Level Gander Center
Tue 08:25:46 PM 56.9333 -59.0500 239° Southwest 410 472 36,000  Level Gander Center
Tue 08:26:46 PM 56.8667 -59.2333 236° Southwest 410 472 36,000  Level Gander Center
Tue 08:27:46 PM 56.8000 -59.4167 236° Southwest 420 483 36,000  Level Gander Center
Tue 08:28:46 PM 56.7500 -59.6167 246° West 420 483 36,000  Level Gander Center
Tue 08:29:46 PM 56.6833 -59.7667 231° Southwest 420 483 36,000  Level Gander Center
Tue 08:30:46 PM 56.6167 -59.9500 237° Southwest 420 483 36,000  Level Gander Center
Tue 08:31:46 PM 56.5667 -60.1333 244° Southwest 420 483 36,000  Level Gander Center
Tue 08:32:46 PM 56.5000 -60.3167 237° Southwest 420 483 36,000  Level Gander Center
Tue 08:33:46 PM 56.4333 -60.5000 237° Southwest 410 472 36,000  Level Gander Center
Tue 08:34:46 PM 56.3667 -60.6833 237° Southwest 420 483 36,000  Level Gander Center
Tue 08:35:46 PM 56.3167 -60.8333 239° Southwest 410 472 36,000  Level Gander Center
Tue 08:36:46 PM 56.2500 -61.0167 237° Southwest 410 472 36,000  Level Gander Center
Tue 08:37:46 PM 56.1833 -61.2000 237° Southwest 410 472 36,000  Level Gander Center
Tue 08:38:46 PM 56.1333 -61.3500 239° Southwest 410 472 36,000  Level Gander Center
Tue 08:39:46 PM 56.0500 -61.5500 233° Southwest 420 483 36,000  Level Gander Center
Tue 08:40:46 PM 56.0000 -61.7000 239° Southwest 420 483 36,000  Level Gander Center
Tue 08:41:46 PM 55.9333 -61.8833 237° Southwest 430 495 36,000  Level Gander Center
Tue 08:42:46 PM 55.8667 -62.0500 235° Southwest 420 483 36,000  Level Gander Center
Tue 08:43:46 PM 55.8000 -62.2333 237° Southwest 420 483 36,000  Level Gander Center
Tue 08:44:46 PM 55.7333 -62.4167 237° Southwest 420 483 36,000  Level Gander Center
Tue 08:45:46 PM 55.6667 -62.5833 235° Southwest 420 483 36,000  Level Gander Center
Tue 08:46:46 PM 55.6167 -62.7667 244° Southwest 420 483 36,000  Level Gander Center
Tue 08:47:46 PM 55.5333 -62.9000 222° Southwest 420 483 36,000  Level Gander Center
Tue 08:48:46 PM 55.4667 -63.1167 242° Southwest 420 483 36,000  Level Gander Center
Tue 08:49:46 PM 55.4000 -63.2500 229° Southwest 420 483 36,000  Level Gander Center
Tue 08:50:46 PM 55.3333 -63.4333 237° Southwest 420 483 36,000  Level Gander Center
Tue 08:51:46 PM 55.2833 -63.6000 242° Southwest 430 495 36,000  Level Gander Center
Tue 08:52:46 PM 55.2000 -63.7667 229° Southwest 420 483 36,000  Level Gander Center
Tue 08:53:46 PM 55.1333 -63.9500 238° Southwest 420 483 36,000  Level Gander Center
Tue 08:54:46 PM 55.0667 -64.1167 235° Southwest 430 495 36,000  Level Gander Center
Tue 08:55:46 PM 55.0000 -64.2833 235° Southwest 420 483 36,000  Level Gander Center
Tue 08:56:46 PM 54.9333 -64.4167 229° Southwest 420 483 36,000  Level Gander Center
Tue 08:57:46 PM 54.8500 -64.6167 234° Southwest 430 495 36,000  Level Gander Center
Tue 08:58:16 PM 54.8167 -64.6500 210° Southwest 430 495 36,000  Level Montreal Center
Tue 08:59:16 PM 54.7500 -64.8167 235° Southwest 430 495 36,000  Level Montreal Center
Tue 09:00:16 PM 54.6833 -64.9833 235° Southwest 420 483 36,000  Level Montreal Center
Tue 09:01:16 PM 54.6167 -65.1500 235° Southwest 430 495 36,000  Level Montreal Center
Tue 09:02:16 PM 54.5333 -65.3167 229° Southwest 430 495 36,000  Level Montreal Center
Tue 09:02:46 PM 54.5167 -65.4500 258° West 420 483 36,000  Level Gander Center
Tue 09:03:46 PM 54.4333 -65.6167 229° Southwest 430 495 36,000  Level Gander Center
Tue 09:04:46 PM 54.3667 -65.7667 233° Southwest 430 495 36,000  Level Gander Center
Tue 09:05:16 PM 54.3333 -65.8000 210° Southwest 420 483 36,000  Level Montreal Center
Tue 09:06:16 PM 54.2500 -65.9667 229° Southwest 420 483 36,000  Level Montreal Center
Tue 09:07:16 PM 54.1833 -66.1333 236° Southwest 430 495 36,000  Level Montreal Center
Tue 09:08:16 PM 54.1167 -66.2833 233° Southwest 430 495 36,000  Level Montreal Center
Tue 09:09:16 PM 54.0333 -66.4500 230° Southwest 430 495 36,000  Level Montreal Center
Tue 09:10:16 PM 53.9667 -66.6167 236° Southwest 430 495 36,000  Level Montreal Center
Tue 09:11:16 PM 53.9000 -66.7667 233° Southwest 430 495 36,000  Level Montreal Center
Tue 09:12:16 PM 53.8167 -66.9667 235° Southwest 420 483 36,000  Level Montreal Center
Tue 09:16:18 PM 53.5068 -67.6591 232° Southwest 441 507 36,000  Level FlightAware ADS-B
Tue 09:17:16 PM 53.4500 -67.7500 232° Southwest 440 506 36,000  Level Montreal Center
Tue 09:17:46 PM 53.4000 -67.8833 238° Southwest 440 506 36,000  Level Gander Center
Tue 09:18:16 PM 53.3667 -67.9167 211° Southwest 440 506 36,000  Level Montreal Center
Tue 09:19:16 PM 53.2833 -68.0667 227° Southwest 440 506 36,000  Level Montreal Center
Tue 09:20:16 PM 53.2000 -68.2167 227° Southwest 440 506 36,000  Level Montreal Center
Tue 09:21:16 PM 53.1333 -68.3833 236° Southwest 430 495 36,000  Level Montreal Center
Tue 09:22:16 PM 53.0500 -68.5333 227° Southwest 430 495 36,000  Level Montreal Center
Tue 09:23:16 PM 52.9833 -68.7167 239° Southwest 440 506 36,000  Level Montreal Center
Tue 09:24:16 PM 52.9000 -68.8667 227° Southwest 440 506 36,000  Level Montreal Center
Tue 09:25:16 PM 52.8333 -69.0167 234° Southwest 430 495 36,000  Level Montreal Center
Tue 09:26:16 PM 52.7500 -69.1667 227° Southwest 430 495 36,000  Level Montreal Center
Tue 09:27:16 PM 52.6833 -69.3167 234° Southwest 430 495 36,000  Level Montreal Center
Tue 09:27:46 PM 52.6333 -69.4500 238° Southwest 440 506 36,000  Level Gander Center
Tue 09:28:16 PM 52.5833 -69.4667 191° South 430 495 36,000  Level Montreal Center
Tue 09:29:16 PM 52.5167 -69.6500 239° Southwest 430 495 36,000  Level Montreal Center
Tue 09:30:16 PM 52.4333 -69.8000 228° Southwest 440 506 36,000  Level Montreal Center
Tue 09:31:16 PM 52.3667 -69.9500 234° Southwest 430 495 36,000  Level Montreal Center
Tue 09:32:16 PM 52.2833 -70.1000 228° Southwest 430 495 36,000  Level Montreal Center
Tue 09:33:16 PM 52.2000 -70.2500 228° Southwest 440 506 36,000  Level Montreal Center
Tue 09:34:16 PM 52.1333 -70.4000 234° Southwest 440 506 36,000  Level Montreal Center
Tue 09:35:16 PM 52.0500 -70.5333 225° Southwest 440 506 36,000  Level Montreal Center
Tue 09:36:16 PM 51.9500 -70.6833 223° Southwest 430 495 36,000  Level Montreal Center
Tue 09:37:16 PM 51.8833 -70.8333 234° Southwest 430 495 36,000  Level Montreal Center
Tue 09:38:16 PM 51.8000 -70.9833 228° Southwest 430 495 36,000  Level Montreal Center
Tue 09:39:16 PM 51.7167 -71.1333 228° Southwest 430 495 36,000  Level Montreal Center
Tue 09:40:16 PM 51.6500 -71.3000 237° Southwest 430 495 36,000  Level Montreal Center
Tue 09:41:16 PM 51.5667 -71.4333 225° Southwest 430 495 36,000  Level Montreal Center
Tue 09:42:16 PM 51.4833 -71.5500 221° Southwest 420 483 36,000  Level Montreal Center
Tue 09:43:16 PM 51.4167 -71.7333 240° Southwest 420 483 36,000  Level Montreal Center
Tue 09:44:16 PM 51.3333 -71.8500 221° Southwest 420 483 36,000  Level Montreal Center
Tue 09:45:16 PM 51.2500 -71.9833 225° Southwest 410 472 36,000  Level Montreal Center
Tue 09:46:16 PM 51.1833 -72.1167 231° Southwest 410 472 36,000  Level Montreal Center
Tue 09:47:16 PM 51.1167 -72.2667 235° Southwest 410 472 36,000  Level Montreal Center
Tue 09:48:16 PM 51.0333 -72.4000 225° Southwest 420 483 36,000  Level Montreal Center
Tue 09:49:16 PM 50.9500 -72.5500 229° Southwest 420 483 36,000  Level Montreal Center
Tue 09:50:16 PM 50.8667 -72.6833 225° Southwest 420 483 36,000  Level Montreal Center
Tue 09:51:16 PM 50.7833 -72.8167 225° Southwest 420 483 36,000  Level Montreal Center
Tue 09:52:16 PM 50.7167 -72.9667 235° Southwest 420 483 36,000  Level Montreal Center
Tue 09:53:16 PM 50.6333 -73.1000 225° Southwest 420 483 36,000  Level Montreal Center
Tue 09:54:16 PM 50.5500 -73.2333 225° Southwest 420 483 36,000  Level Montreal Center
Tue 09:55:16 PM 50.4667 -73.3667 226° Southwest 420 483 36,000  Level Montreal Center
Tue 09:56:16 PM 50.3833 -73.5167 229° Southwest 420 483 36,000  Level Montreal Center
Tue 09:57:16 PM 50.2833 -73.6167 213° Southwest 430 495 36,000  Level Montreal Center
Tue 09:58:16 PM 50.1833 -73.7333 217° Southwest 430 495 36,000  Level Montreal Center
Tue 09:59:16 PM 50.1000 -73.8333 218° Southwest 430 495 36,000  Level Montreal Center
Tue 10:00:16 PM 50.0000 -73.9833 224° Southwest 430 495 36,000  Level Montreal Center
Tue 10:01:16 PM 49.9167 -74.0833 218° Southwest 430 495 36,000  Level Montreal Center
Tue 10:02:16 PM 49.8167 -74.2000 217° Southwest 430 495 36,000  Level Montreal Center
Tue 10:03:16 PM 49.7167 -74.3000 213° Southwest 430 495 36,000  Level Montreal Center
Tue 10:04:16 PM 49.6333 -74.4000 218° Southwest 430 495 36,000  Level Montreal Center
Tue 10:05:16 PM 49.5333 -74.5333 221° Southwest 420 483 36,000  Level Montreal Center
Tue 10:06:16 PM 49.4500 -74.6500 222° Southwest 420 483 36,000  Level Montreal Center
Tue 10:07:16 PM 49.3500 -74.7500 213° Southwest 420 483 36,000  Level Montreal Center
Tue 10:08:16 PM 49.2500 -74.8667 217° Southwest 410 472 36,000  Level Montreal Center
Tue 10:09:16 PM 49.1667 -74.9667 218° Southwest 410 472 36,000  Level Montreal Center
Tue 10:10:16 PM 49.0667 -75.0667 213° Southwest 410 472 36,000  Level Montreal Center
Tue 10:11:16 PM 48.9833 -75.1667 218° Southwest 410 472 36,000  Level Montreal Center
Tue 10:12:16 PM 48.8833 -75.3000 221° Southwest 410 472 36,000  Level Montreal Center
Tue 10:13:16 PM 48.8000 -75.4000 218° Southwest 420 483 36,000  Level Montreal Center
Tue 10:14:16 PM 48.7167 -75.5000 218° Southwest 420 483 36,000  Level Montreal Center
Tue 10:15:16 PM 48.6167 -75.6167 218° Southwest 420 483 36,000  Level Montreal Center
Tue 10:16:16 PM 48.5167 -75.7167 214° Southwest 420 483 36,000  Level Montreal Center
Tue 10:17:16 PM 48.4167 -75.8167 214° Southwest 420 483 36,000  Level Montreal Center
Tue 10:23:03 PM 47.8710 -76.4490 217° Southwest 430 495 36,000  Level FlightAware ADS-B
Tue 10:24:20 PM 47.7520 -76.5790 217° Southwest 430 495 36,000  Level FlightAware ADS-B
Tue 10:25:01 PM 47.6840 -76.6530 217° Southwest 430 495 36,000  Level FlightAware ADS-B
Tue 10:25:46 PM 47.6130 -76.7310 217° Southwest 430 495 36,000  Level FlightAware ADS-B
Tue 10:26:25 PM 47.5490 -76.8000 217° Southwest 432 497 36,000  Level FlightAware ADS-B
Tue 10:27:11 PM 47.4750 -76.8790 216° Southwest 432 497 36,000  Level FlightAware ADS-B
Tue 10:28:14 PM 47.3750 -76.9870 216° Southwest 433 498 36,000  Level FlightAware ADS-B
Tue 10:29:01 PM 47.2970 -77.0700 216° Southwest 433 498 36,000  Level FlightAware ADS-B
Tue 10:30:01 PM 47.2010 -77.1730 216° Southwest 433 498 36,000  Level FlightAware ADS-B
Tue 10:36:36 PM 46.5677 -77.8346 216° Southwest 426 490 36,000  Level FlightAware ADS-B (CYYZ)
Tue 10:37:22 PM 46.5033 -77.9009 216° Southwest 426 490 36,000  Level FlightAware ADS-B (CYYZ)
Tue 10:38:07 PM 46.4213 -77.9851 216° Southwest 426 490 36,000  Level FlightAware ADS-B (CYYZ)
Tue 10:38:53 PM 46.3455 -78.0627 216° Southwest 425 489 36,000  Level FlightAware ADS-B (CYYZ)
Tue 10:39:38 PM 46.2732 -78.1362 216° Southwest 425 489 36,000  Level FlightAware ADS-B (CYYZ)
Tue 10:40:07 PM 46.2250 -78.1851 216° Southwest 425 489 36,000  Level FlightAware ADS-B (CYYZ)
Tue 10:40:53 PM 46.1531 -78.2580 216° Southwest 426 490 36,000  Level FlightAware ADS-B (CYYZ)
Tue 10:41:24 PM 46.1031 -78.3085 216° Southwest 426 490 36,000  Level FlightAware ADS-B (CYYZ)
Tue 10:42:09 PM 46.0295 -78.3825 216° Southwest 426 490 36,000  Level FlightAware ADS-B (CYYZ)
Tue 10:42:53 PM 45.9582 -78.4544 215° Southwest 427 491 36,000  Level FlightAware ADS-B (CYYZ)
Tue 10:43:39 PM 45.8837 -78.5289 215° Southwest 427 491 36,000  Level FlightAware ADS-B (CYYZ)
Tue 10:44:24 PM 45.8104 -78.6018 215° Southwest 428 493 36,000  Level FlightAware ADS-B (CYYZ)
Tue 10:45:09 PM 45.7381 -78.6738 215° Southwest 426 490 36,000  Level FlightAware ADS-B (CYYZ)
Tue 10:45:54 PM 45.6650 -78.7462 215° Southwest 426 490 36,000  Level FlightAware ADS-B (CYYZ)
Tue 10:46:40 PM 45.5917 -78.8187 215° Southwest 425 489 36,000  Level FlightAware ADS-B (CYYZ)
Tue 10:47:25 PM 45.5187 -78.8905 215° Southwest 424 488 36,000  Level FlightAware ADS-B (CYYZ)
Tue 10:48:10 PM 45.4460 -78.9619 215° Southwest 424 488 36,000  Level FlightAware ADS-B (CYYZ)
Tue 10:48:55 PM 45.3730 -79.0332 215° Southwest 425 489 36,000  Level FlightAware ADS-B (CYYZ)
Tue 10:49:40 PM 45.2995 -79.1051 215° Southwest 425 489 36,000  Level FlightAware ADS-B (CYYZ)
Tue 10:50:25 PM 45.2262 -79.1762 215° Southwest 425 489 36,000  Level FlightAware ADS-B (CYYZ)
Tue 10:51:10 PM 45.1540 -79.2477 216° Southwest 424 488 36,000  Level FlightAware ADS-B (CYYZ)
Tue 10:51:56 PM 45.0823 -79.3202 216° Southwest 424 488 36,000  Level FlightAware ADS-B (CYYZ)
Tue 10:52:25 PM 45.0347 -79.3678 216° Southwest 424 488 36,000  Level FlightAware ADS-B (CYYZ)
Tue 10:52:56 PM 44.9853 -79.4170 216° Southwest 424 488 36,000  Level FlightAware ADS-B (CYYZ)
Tue 10:53:41 PM 44.9134 -79.4883 216° Southwest 424 488 36,000  Level FlightAware ADS-B (CYYZ)
Tue 10:54:26 PM 44.8416 -79.5594 216° Southwest 425 489 36,000  Level FlightAware ADS-B (CYYZ)
Tue 10:55:11 PM 44.7686 -79.6315 216° Southwest 425 489 36,000  Level FlightAware ADS-B (CYYZ)
Tue 10:55:56 PM 44.6964 -79.7027 216° Southwest 425 489 36,000  Level FlightAware ADS-B (CYYZ)
Tue 10:56:00 PM 44.6918 -79.7073 215° Southwest 426 490 36,000  Level FlightAware ADS-B (EPLB / LUZ)
Tue 10:56:41 PM 44.6232 -79.7745 215° Southwest 425 489 36,000  Level FlightAware ADS-B (CYYZ)
Tue 10:57:13 PM 44.5768 -79.8200 215° Southwest 426 490 36,000  Level FlightAware ADS-B (EPLB / LUZ)
Tue 10:57:27 PM 44.5507 -79.8456 215° Southwest 425 489 36,000  Level FlightAware ADS-B (CYYZ)
Tue 10:57:53 PM 44.5103 -79.8850 215° Southwest 425 489 36,000  Level FlightAware ADS-B (EPLB / LUZ)
Tue 10:58:12 PM 44.4782 -79.9164 215° Southwest 425 489 36,000  Level FlightAware ADS-B (CYYZ)
Tue 10:58:25 PM 44.4608 -79.9333 215° Southwest 425 489 36,000  Level FlightAware ADS-B (EPLB / LUZ)
Tue 10:58:57 PM 44.4054 -79.9872 215° Southwest 424 488 36,000  Level FlightAware ADS-B (CYYZ)
Tue 10:59:04 PM 44.3940 -79.9983 215° Southwest 425 489 36,000  Level FlightAware ADS-B (EPLB / LUZ)
Tue 10:59:37 PM 44.3405 -80.0501 215° Southwest 424 488 36,000  Level FlightAware ADS-B (EPLB / LUZ)
Tue 10:59:42 PM 44.3322 -80.0582 215° Southwest 424 488 36,000  Level FlightAware ADS-B (CYYZ)
Tue 11:00:11 PM 44.2864 -80.1025 215° Southwest 425 489 36,000  Level FlightAware ADS-B (EPLB / LUZ)
Tue 11:00:27 PM 44.2598 -80.1282 215° Southwest 424 488 36,000  Level FlightAware ADS-B (CYYZ)
Tue 11:01:09 PM 44.1983 -80.1874 215° Southwest 426 490 36,000  Level FlightAware ADS-B (EPLB / LUZ)
Tue 11:01:12 PM 44.1869 -80.1985 215° Southwest 425 489 36,000  Level FlightAware ADS-B (CYYZ)
Tue 11:01:49 PM 44.1271 -80.2559 215° Southwest 426 490 36,000  Level FlightAware ADS-B (EPLB / LUZ)
Tue 11:01:57 PM 44.1134 -80.2690 215° Southwest 426 490 36,000  Level FlightAware ADS-B (CYYZ)
Tue 11:02:29 PM 44.0635 -80.3170 215° Southwest 428 493 36,000  Level FlightAware ADS-B (EPLB / LUZ)
Tue 11:02:43 PM 44.0397 -80.3397 215° Southwest 427 491 36,000  Level FlightAware ADS-B (CYYZ)
Tue 11:03:13 PM 43.9906 -80.3865 215° Southwest 429 494 36,000  Level FlightAware ADS-B (CYKF)
Tue 11:03:28 PM 43.9675 -80.4085 215° Southwest 429 494 36,000  Level FlightAware ADS-B (CYYZ)
Tue 11:03:45 PM 43.9386 -80.4361 215° Southwest 430 495 36,000  Level FlightAware ADS-B (EPLB / LUZ)
Tue 11:04:13 PM 43.8928 -80.4796 215° Southwest 430 495 36,000  Level FlightAware ADS-B (CYYZ)
Tue 11:04:24 PM 43.8750 -80.4965 215° Southwest 431 496 36,000  Level FlightAware ADS-B (CYHM)
Tue 11:04:58 PM 43.8188 -80.5498 215° Southwest 431 496 36,000  Level FlightAware ADS-B (CYYZ)
Tue 11:05:05 PM 43.8129 -80.5554 214° Southwest 432 497 36,000  Level FlightAware ADS-B (EPLB / LUZ)
Tue 11:05:43 PM 43.7437 -80.6209 215° Southwest 432 497 36,000  Level FlightAware ADS-B (CYYZ)
Tue 11:05:45 PM 43.7412 -80.6233 215° Southwest 433 498 36,000  Level FlightAware ADS-B (EPLB / LUZ)
Tue 11:06:17 PM 43.7161 -80.6470 215° Southwest 433 498 36,000  Level FlightAware ADS-B (EPLB / LUZ)
Tue 11:06:28 PM 43.6693 -80.6912 215° Southwest 433 498 36,000  Level FlightAware ADS-B (CYYZ)
Tue 11:06:57 PM 43.6247 -80.7330 215° Southwest 434 499 36,000  Level FlightAware ADS-B (EPLB / LUZ)
Tue 11:07:13 PM 43.5948 -80.7612 215° Southwest 434 499 36,000  Level FlightAware ADS-B (CYYZ)
Tue 11:07:33 PM 43.5633 -80.7907 214° Southwest 435 501 36,000  Level FlightAware ADS-B (EPLB / LUZ)
Tue 11:07:59 PM 43.5199 -80.8315 215° Southwest 436 502 36,000  Level FlightAware ADS-B (CYYZ)
Tue 11:08:23 PM 43.5007 -80.8494 214° Southwest 436 502 36,000  Level FlightAware ADS-B (CYHM)
Tue 11:08:44 PM 43.4450 -80.9016 215° Southwest 435 501 36,000  Level FlightAware ADS-B (CYYZ)
Tue 11:08:56 PM 43.4250 -80.9201 214° Southwest 436 502 36,000  Level FlightAware ADS-B (EPLB / LUZ)
Tue 11:09:29 PM 43.3696 -80.9717 215° Southwest 436 502 36,000  Level FlightAware ADS-B (CYYZ)
Tue 11:09:51 PM 43.3322 -81.0064 214° Southwest 437 503 36,000  Level FlightAware ADS-B (EPLB / LUZ)
Tue 11:10:14 PM 43.2947 -81.0414 215° Southwest 437 503 36,000  Level FlightAware ADS-B (CYYZ)
Tue 11:10:30 PM 43.2678 -81.0662 214° Southwest 438 504 36,000  Level FlightAware ADS-B (EPLB / LUZ)
Tue 11:10:59 PM 43.2190 -81.1113 215° Southwest 437 503 36,000  Level FlightAware ADS-B (CYYZ)
Tue 11:11:24 PM 43.1817 -81.1459 214° Southwest 439 505 36,000  Level FlightAware ADS-B (EPLB / LUZ)
Tue 11:11:44 PM 43.1428 -81.1817 214° Southwest 438 504 36,000  Level FlightAware ADS-B (CYYZ)
Tue 11:12:21 PM 43.1118 -81.2102 214° Southwest 439 505 36,000  Level FlightAware ADS-B (EPLB / LUZ)
Tue 11:12:29 PM 43.0676 -81.2507 214° Southwest 438 504 36,000  Level FlightAware ADS-B (CYYZ)
Tue 11:13:15 PM 42.9910 -81.3212 214° Southwest 439 505 36,000  Level FlightAware ADS-B (CYYZ)
Tue 11:13:29 PM 43.0331 -81.2824 214° Southwest 440 506 36,000  Level FlightAware ADS-B (EPLB / LUZ)
Tue 11:14:00 PM 42.9141 -81.3916 214° Southwest 440 506 36,000  Level FlightAware ADS-B (CYYZ)
Tue 11:14:45 PM 42.8380 -81.4610 214° Southwest 441 507 36,000  Level FlightAware ADS-B (CYYZ)
Tue 11:15:21 PM 42.7766 -81.5167 214° Southwest 441 507 36,000  Level FlightAware ADS-B (EPLB / LUZ)
Tue 11:15:30 PM 42.7645 -81.5277 214° Southwest 440 506 36,000  Level FlightAware ADS-B (CYYZ)
Tue 11:16:15 PM 42.6856 -81.5994 214° Southwest 441 507 36,000  Level FlightAware ADS-B (CYYZ)
Tue 11:17:00 PM 42.6091 -81.6686 214° Southwest 440 506 36,000  Level FlightAware ADS-B (CYYZ)
Tue 11:17:05 PM 42.6012 -81.6757 214° Southwest 441 507 36,000  Level FlightAware ADS-B (EPLB / LUZ)
Tue 11:17:45 PM 42.5344 -81.7360 214° Southwest 441 507 36,000  Level FlightAware ADS-B (CYYZ)
Tue 11:18:31 PM 42.4555 -81.8066 214° Southwest 441 507 36,000  Level FlightAware ADS-B (CYYZ)
Tue 11:19:16 PM 42.3788 -81.8754 214° Southwest 441 507 36,000  Level FlightAware ADS-B (CYYZ)
Tue 11:20:01 PM 42.3020 -81.9440 214° Southwest 440 506 36,000  Level FlightAware ADS-B (CYYZ)
Tue 11:20:31 PM 42.2519 -81.9887 214° Southwest 440 506 36,000  Level FlightAware ADS-B (CYYZ)
Tue 11:21:01 PM 42.2015 -82.0334 214° Southwest 440 506 36,000  Level FlightAware ADS-B (CYYZ)
Tue 11:21:46 PM 42.1455 -82.0833 214° Southwest 439 505 36,000  Level FlightAware ADS-B (CYYZ)
Tue 11:22:22 PM 42.0714 -82.1487 214° Southwest 439 505 36,000  Level FlightAware ADS-B (CYYZ)
Tue 11:23:08 PM 42.0137 -82.1996 214° Southwest 439 505 36,000  Level FlightAware ADS-B (CYYZ)
Tue 11:25:02 PM 41.7947 -82.3920 214° Southwest 437 503 36,000  Level FlightAware ADS-B (CYYZ)
Tue 11:27:02 PM 41.5873 -82.5727 214° Southwest 440 506 36,000  Level FlightAware ADS-B (CYYZ)
Tue 11:27:38 PM 41.5363 -82.6169 213° Southwest 441 507 36,000  Level FlightAware ADS-B (CYYZ)
Tue 11:28:33 PM 41.4335 -82.7058 213° Southwest 443 510 36,000  Level FlightAware ADS-B (CYYZ)
Tue 11:29:17 PM 41.4153 -82.7216 214° Southwest 446 513 36,000  Level FlightAware ADS-B (CYYZ)
Tue 11:30:03 PM 41.2803 -82.8376 213° Southwest 448 516 36,000  Level FlightAware ADS-B (CYYZ)
Tue 11:30:33 PM 41.2677 -82.8484 213° Southwest 448 516 36,000  Level FlightAware ADS-B (CYYZ)
Tue 11:31:09 PM 41.1678 -82.9339 213° Southwest 445 512 36,000  Level Cleveland Center
Tue 11:32:10 PM 41.0619 -83.0242 213° Southwest 447 514 36,000  Level Cleveland Center
Tue 11:33:11 PM 40.9558 -83.1142 213° Southwest 448 516 36,000  Level Cleveland Center
Tue 11:34:12 PM 40.8589 -83.1964 213° Southwest 449 517 36,000  Level Cleveland Center
Tue 11:35:13 PM 40.7533 -83.2853 213° Southwest 450 518 36,000  Level Cleveland Center
Tue 11:36:14 PM 40.6472 -83.3744 213° Southwest 451 519 36,000  Level Cleveland Center
Tue 11:36:48 PM 40.5836 -83.4278 212° Southwest 452 520 36,000 -173 Level Indianapolis Center
Tue 11:42:36 PM 39.9391 -83.9606 212° Southwest 461 531 34,900 -294 Descending FlightAware ADS-B
Tue 11:43:16 PM 39.8668 -84.0197 212° Southwest 463 533 34,100 -1,152 Descending FlightAware ADS-B
Tue 11:46:20 PM 39.5090 -84.2235 195° South 478 550 30,600 -1,153 Descending FlightAware ADS-B
Tue 11:47:05 PM 39.4186 -84.2553 196° South 481 554 29,700 -1,277 Descending FlightAware ADS-B
Tue 11:47:54 PM 39.3106 -84.2972 201° Southwest 478 550 28,600 -1,042 Descending FlightAware ADS-B
Tue 11:49:29 PM 39.1542 -84.4617 226° Southwest 444 511 27,200 -1,256 Descending FlightAware ADS-B (KCVG)
Tue 11:50:03 PM 39.1210 -84.5055 224° Southwest 432 497 25,900 -3,041 Descending FlightAware ADS-B (KCVG)
Tue 11:50:42 PM 39.0510 -84.5933 224° Southwest 414 476 23,500 -3,711 Descending FlightAware ADS-B (KCVG)
Tue 11:51:19 PM 39.0089 -84.6448 223° Southwest 402 463 21,200 -3,706 Descending FlightAware ADS-B (KCVG)
Tue 11:51:50 PM 38.9596 -84.7053 224° Southwest 390 449 19,300 -3,205 Descending FlightAware ADS-B (KCVG)
Tue 11:52:32 PM 38.9310 -84.7405 224° Southwest 376 433 17,300 -2,444 Descending FlightAware ADS-B (KCVG)
Tue 11:53:11 PM 38.8584 -84.8303 224° Southwest 365 420 16,000 -1,703 Descending FlightAware ADS-B (KCVG)
Tue 11:53:46 PM 38.8152 -84.8840 224° Southwest 380 437 15,200 -1,775 Descending FlightAware ADS-B (KCVG)
Tue 11:54:22 PM 38.7705 -84.9383 221° Southwest 364 419 13,900 -1,273 Descending FlightAware ADS-B (KCVG)
Tue 11:54:52 PM 38.7330 -84.9772 218° Southwest 356 410 13,800 -1,223 Descending FlightAware ADS-B (KCVG)
Tue 11:58:47 PM 38.4808 -85.2898 256° West 273 314 8,500 -1,419 Descending FlightAware ADS-B
Tue 11:59:48 PM 38.4626 -85.3811 256° West 271 312 6,800 -1,438 Descending FlightAware ADS-B
Wed 12:00:48 AM 38.4434 -85.4756 255° West 266 306 5,600 -1,059 Descending FlightAware ADS-B
Wed 12:01:30 AM 38.4339 -85.5242 255° West 269 310 5,000 -941 Descending Indianapolis Center
Wed 12:02:30 AM 38.4161 -85.6128 256° West 264 304 4,000 -756 Descending Indianapolis Center
Wed 12:03:29 AM 38.3894 -85.6869 245° Southwest 246 283 3,500 -488 Descending Indianapolis Center
Wed 12:04:33 AM 38.3558 -85.7433 233° Southwest 220 253 3,000 -290 Descending Indianapolis Center
Wed 12:05:33 AM 38.3028 -85.7703 202° Southwest 215 247 2,900 -252 Descending Indianapolis Center
Wed 12:06:32 AM 38.2386 -85.7578 171° South 206 237 2,500 -407 Descending Indianapolis Center
Wed 12:08:00 AM 38.1741 -85.7365 208° Southwest  Level Estimated
Wed 12:15:00 AM 38.1741 -85.7365 208° Southwest  Level Estimated

Login

Don't have an account? Register now (free) for customized features, flight alerts, and more!